createdAt,value
2022-08-24T00:00:31.792Z,10.07
2022-08-24T00:02:58.592Z,10.02
2022-08-24T00:05:25.294Z,9.73
2022-08-24T00:07:51.935Z,9.50
2022-08-24T00:10:21.154Z,10.30
2022-08-24T00:12:47.936Z,9.18
2022-08-24T00:15:15.695Z,10.18
2022-08-24T00:17:42.971Z,9.27
2022-08-24T00:20:11.510Z,9.23
2022-08-24T00:22:39.019Z,8.85
2022-08-24T00:25:06.111Z,8.45
2022-08-24T00:27:32.912Z,8.50
2022-08-24T00:29:59.499Z,9.23
2022-08-24T00:32:26.218Z,9.60
2022-08-24T00:34:58.616Z,8.95
2022-08-24T00:37:28.479Z,9.38
2022-08-24T00:39:56.110Z,9.90
2022-08-24T00:42:23.398Z,9.45
2022-08-24T00:44:50.001Z,12.15
2022-08-24T00:47:25.828Z,10.93
2022-08-24T00:50:01.208Z,12.10
2022-08-24T00:52:33.418Z,10.75
2022-08-24T00:55:13.133Z,11.40
2022-08-24T00:57:43.178Z,16.85
2022-08-24T01:00:16.348Z,16.83
2022-08-24T01:02:45.712Z,16.70
2022-08-24T01:05:13.614Z,15.43
2022-08-24T01:07:41.254Z,17.10
2022-08-24T01:10:14.144Z,15.35
2022-08-24T01:12:48.225Z,15.18
2022-08-24T01:15:29.787Z,14.93
2022-08-24T01:18:12.167Z,15.90
2022-08-24T01:20:39.046Z,16.63
2022-08-24T01:23:09.447Z,17.35
2022-08-24T01:25:37.671Z,14.90
2022-08-24T01:28:10.397Z,15.90
2022-08-24T01:30:37.397Z,16.08
2022-08-24T01:33:08.973Z,15.68
2022-08-24T01:35:38.238Z,15.80
2022-08-24T01:38:08.736Z,17.13
2022-08-24T01:40:53.658Z,14.48
2022-08-24T01:43:20.357Z,14.90
2022-08-24T01:45:46.921Z,14.50
2022-08-24T01:48:15.335Z,14.65
2022-08-24T01:53:16.659Z,13.63
2022-08-24T01:55:43.867Z,13.07
2022-08-24T01:58:10.493Z,14.73
2022-08-24T02:00:37.732Z,13.10
2022-08-24T02:03:05.184Z,12.85
2022-08-24T02:05:32.125Z,11.90
2022-08-24T02:07:58.923Z,13.13
2022-08-24T02:10:26.470Z,12.05
2022-08-24T02:13:00.669Z,12.38
2022-08-24T02:15:34.743Z,13.48
2022-08-24T02:18:01.558Z,13.35
2022-08-24T02:20:28.537Z,13.82
2022-08-24T02:22:57.309Z,13.50
2022-08-24T02:25:25.030Z,12.23
2022-08-24T02:27:51.965Z,11.85
2022-08-24T02:30:19.318Z,11.80
2022-08-24T02:32:45.919Z,10.40
2022-08-24T02:35:12.723Z,11.07
2022-08-24T02:37:43.532Z,12.15
2022-08-24T02:40:12.543Z,12.27
2022-08-24T02:42:39.761Z,12.68
2022-08-24T02:45:08.016Z,11.40
2022-08-24T02:47:38.851Z,11.02
2022-08-24T02:50:08.220Z,11.20
2022-08-24T02:52:37.205Z,12.30
2022-08-24T02:55:04.639Z,11.55
2022-08-24T02:57:31.425Z,11.88
2022-08-24T02:59:58.089Z,10.90
2022-08-24T03:02:24.777Z,11.68
2022-08-24T03:04:51.406Z,11.43
2022-08-24T03:07:18.080Z,10.55
2022-08-24T03:09:44.718Z,11.65
2022-08-24T03:12:11.539Z,10.10
2022-08-24T03:14:38.188Z,10.38
2022-08-24T03:17:05.292Z,10.95
2022-08-24T03:19:31.895Z,11.38
2022-08-24T03:21:58.530Z,10.20
2022-08-24T03:24:25.091Z,10.25
2022-08-24T03:26:52.475Z,10.77
2022-08-24T03:29:19.191Z,10.60
2022-08-24T03:31:46.642Z,10.25
2022-08-24T03:34:13.594Z,12.23
2022-08-24T03:36:41.735Z,11.07
2022-08-24T03:39:08.371Z,10.70
2022-08-24T03:41:35.401Z,10.65
2022-08-24T03:44:04.223Z,11.10
2022-08-24T03:46:36.810Z,11.50
2022-08-24T03:49:08.710Z,11.52
2022-08-24T03:51:37.012Z,11.27
2022-08-24T03:54:05.817Z,11.93
2022-08-24T03:56:32.540Z,11.25
2022-08-24T03:58:59.841Z,11.60
2022-08-24T04:01:27.032Z,10.85
2022-08-24T04:03:55.232Z,11.00
2022-08-24T04:06:22.749Z,10.65
2022-08-24T04:08:50.025Z,10.73
2022-08-24T04:11:20.035Z,11.60
2022-08-24T04:13:48.152Z,11.65
2022-08-24T04:16:17.692Z,11.82
2022-08-24T04:18:44.767Z,12.13
2022-08-24T04:21:29.247Z,10.60
2022-08-24T04:23:57.399Z,12.45
2022-08-24T04:26:43.763Z,11.35
2022-08-24T04:29:14.778Z,10.65
2022-08-24T04:31:43.059Z,10.85
2022-08-24T04:34:10.592Z,11.82
2022-08-24T04:36:37.338Z,11.52
2022-08-24T04:39:05.337Z,11.77
2022-08-24T04:41:32.004Z,12.85
2022-08-24T04:43:59.750Z,12.35
2022-08-24T04:46:27.579Z,12.88
2022-08-24T04:48:54.735Z,13.73
2022-08-24T04:51:21.417Z,13.90
2022-08-24T04:53:49.627Z,14.18
2022-08-24T04:56:20.158Z,15.07
2022-08-24T04:58:47.257Z,15.88
2022-08-24T05:01:19.320Z,16.85
2022-08-24T05:03:49.211Z,14.55
2022-08-24T05:06:18.591Z,16.88
2022-08-24T05:08:47.341Z,16.50
2022-08-24T05:11:15.196Z,14.52
2022-08-24T05:13:41.864Z,17.10
2022-08-24T05:16:10.676Z,16.23
2022-08-24T05:18:37.883Z,16.20
2022-08-24T05:21:12.241Z,16.13
2022-08-24T05:23:40.169Z,16.35
2022-08-24T05:26:12.746Z,14.93
2022-08-24T05:28:39.944Z,14.80
2022-08-24T05:31:20.100Z,15.30
2022-08-24T05:33:48.282Z,15.32
2022-08-24T05:36:19.251Z,15.57
2022-08-24T05:38:47.895Z,14.73
2022-08-24T05:41:15.800Z,15.23
2022-08-24T05:43:43.515Z,15.00
2022-08-24T05:46:10.243Z,15.05
2022-08-24T05:48:37.791Z,16.58
2022-08-24T05:51:05.982Z,17.35
2022-08-24T05:53:33.281Z,16.05
2022-08-24T05:56:05.231Z,15.43
2022-08-24T05:58:31.945Z,16.13
2022-08-24T06:01:00.079Z,15.23
2022-08-24T06:03:27.173Z,15.15
2022-08-24T06:05:55.105Z,17.00
2022-08-24T06:08:22.040Z,18.13
2022-08-24T06:10:48.875Z,17.23
2022-08-24T06:13:16.904Z,17.80
2022-08-24T06:15:51.119Z,17.05
2022-08-24T06:18:30.626Z,17.42
2022-08-24T06:20:57.816Z,16.98
2022-08-24T06:23:24.953Z,16.55
2022-08-24T06:26:07.176Z,17.75
2022-08-24T06:28:33.759Z,17.23
2022-08-24T06:31:07.435Z,17.40
2022-08-24T06:33:34.096Z,17.23
2022-08-24T06:36:00.931Z,18.27
2022-08-24T06:38:27.739Z,20.05
2022-08-24T06:40:54.365Z,19.65
2022-08-24T06:43:20.996Z,20.35
2022-08-24T06:45:47.625Z,19.27
2022-08-24T06:48:14.337Z,26.40
2022-08-24T06:50:41.134Z,22.90
2022-08-24T06:53:08.039Z,21.98
2022-08-24T06:55:34.919Z,21.73
2022-08-24T06:58:02.656Z,21.85
2022-08-24T07:00:32.476Z,19.92
2022-08-24T07:02:59.091Z,20.17
2022-08-24T07:05:26.022Z,20.42
2022-08-24T07:07:53.487Z,19.13
2022-08-24T07:10:22.941Z,18.58
2022-08-24T07:12:49.682Z,20.92
2022-08-24T07:15:16.720Z,20.60
2022-08-24T07:17:43.360Z,19.92
2022-08-24T07:20:10.725Z,21.00
2022-08-24T07:22:37.332Z,21.35
2022-08-24T07:25:04.974Z,21.45
2022-08-24T07:27:31.693Z,21.33
2022-08-24T07:30:23.257Z,20.05
2022-08-24T07:32:44.831Z,22.02
2022-08-24T07:35:11.435Z,25.48
2022-08-24T07:37:41.486Z,26.30
2022-08-24T07:40:09.342Z,27.25
2022-08-24T07:42:36.219Z,25.08
2022-08-24T07:45:03.725Z,24.48
2022-08-24T07:47:40.681Z,22.42
2022-08-24T07:50:13.274Z,21.98
2022-08-24T07:52:40.031Z,24.10
2022-08-24T07:55:06.930Z,20.38
2022-08-24T07:57:33.629Z,22.38
2022-08-24T08:00:01.035Z,20.13
2022-08-24T08:02:30.794Z,20.83
2022-08-24T08:05:03.495Z,20.83
2022-08-24T08:07:31.098Z,20.15
2022-08-24T08:09:57.885Z,18.05
2022-08-24T08:12:24.630Z,19.55
2022-08-24T08:14:51.238Z,19.50
2022-08-24T08:17:17.845Z,18.38
2022-08-24T08:19:44.595Z,18.05
2022-08-24T08:22:26.506Z,15.52
2022-08-24T08:24:53.082Z,19.20
2022-08-24T08:27:21.703Z,17.48
2022-08-24T08:29:49.046Z,16.52
2022-08-24T08:32:17.260Z,16.02
2022-08-24T08:34:44.929Z,15.13
2022-08-24T08:37:12.799Z,16.40
2022-08-24T08:39:40.630Z,13.82
2022-08-24T08:42:13.696Z,10.68
2022-08-24T08:45:03.207Z,11.43
2022-08-24T08:47:50.721Z,10.82
2022-08-24T08:50:23.992Z,7.47
2022-08-24T08:53:21.104Z,7.65
2022-08-24T08:55:59.957Z,6.95
2022-08-24T08:58:57.701Z,6.32
2022-08-24T09:01:48.005Z,7.57
2022-08-24T09:04:31.810Z,7.57
2022-08-24T09:07:14.183Z,6.43
2022-08-24T09:09:48.549Z,8.15
2022-08-24T09:12:36.730Z,10.75
2022-08-24T09:15:25.291Z,6.60
2022-08-24T09:18:08.412Z,10.48
2022-08-24T09:20:50.471Z,10.93
2022-08-24T09:23:19.113Z,9.65
2022-08-24T09:25:59.586Z,10.38
2022-08-24T09:28:43.743Z,10.60
2022-08-24T09:31:41.487Z,9.00
2022-08-24T09:34:18.630Z,8.88
2022-08-24T09:36:54.063Z,9.57
2022-08-24T09:39:21.783Z,9.48
2022-08-24T09:42:25.656Z,8.43
2022-08-24T09:45:22.722Z,9.20
2022-08-24T09:48:05.515Z,8.55
2022-08-24T09:51:02.707Z,8.75
2022-08-24T09:53:46.794Z,7.78
2022-08-24T09:56:29.594Z,8.05
2022-08-24T09:59:20.488Z,8.25
2022-08-24T10:02:06.061Z,8.20
2022-08-24T10:04:48.091Z,8.20
2022-08-24T10:07:41.854Z,9.57
2022-08-24T10:10:34.648Z,10.93
2022-08-24T10:13:14.204Z,9.13
2022-08-24T10:16:00.663Z,9.18
2022-08-24T10:21:18.807Z,8.98
2022-08-24T10:24:15.900Z,9.95
2022-08-24T10:26:57.854Z,11.63
2022-08-24T10:29:45.329Z,14.30
2022-08-24T10:32:47.559Z,24.25
2022-08-24T10:35:20.263Z,22.63
2022-08-24T10:38:17.539Z,14.45
2022-08-24T10:40:54.537Z,15.02
2022-08-24T10:43:40.310Z,13.23
2022-08-24T10:46:38.348Z,10.65
2022-08-24T10:49:32.283Z,16.90
2022-08-24T10:52:15.113Z,12.18
2022-08-24T10:54:41.993Z,6.88
2022-08-24T10:57:22.621Z,7.80
2022-08-24T11:00:09.668Z,9.38
2022-08-24T11:02:43.492Z,10.23
2022-08-24T11:05:14.376Z,10.10
2022-08-24T11:07:58.754Z,11.13
2022-08-24T11:10:32.652Z,9.93
2022-08-24T11:13:23.686Z,12.18
2022-08-24T11:15:55.130Z,9.93
2022-08-24T11:18:23.066Z,12.00
2022-08-24T11:20:53.845Z,12.68
2022-08-24T11:23:28.359Z,13.23
2022-08-24T11:26:04.021Z,11.32
2022-08-24T11:28:44.259Z,10.40
2022-08-24T11:31:14.383Z,10.32
2022-08-24T11:33:52.966Z,11.35
2022-08-24T11:36:26.181Z,11.68
2022-08-24T11:39:23.355Z,10.75
2022-08-24T11:41:56.967Z,12.57
2022-08-24T11:44:37.526Z,12.95
2022-08-24T11:47:26.912Z,12.43
2022-08-24T11:50:24.080Z,15.35
2022-08-24T11:53:18.318Z,15.80
2022-08-24T11:56:05.331Z,15.68
2022-08-24T11:59:01.813Z,14.88
2022-08-24T12:01:34.900Z,15.90
2022-08-24T12:04:01.490Z,16.35
2022-08-24T12:06:50.939Z,15.65
2022-08-24T12:09:50.740Z,13.93
2022-08-24T12:12:33.624Z,14.55
2022-08-24T12:15:12.083Z,12.38
2022-08-24T12:17:47.496Z,11.23
2022-08-24T12:20:27.255Z,11.57
2022-08-24T12:22:59.088Z,11.27
2022-08-24T12:25:45.185Z,11.70
2022-08-24T12:28:14.963Z,12.30
2022-08-24T12:30:41.662Z,10.30
2022-08-24T12:33:13.249Z,7.45
2022-08-24T12:35:45.176Z,10.05
2022-08-24T12:38:19.924Z,9.77
2022-08-24T12:40:56.481Z,8.65
2022-08-24T12:43:38.055Z,9.25
2022-08-24T12:46:06.842Z,8.50
2022-08-24T12:48:42.724Z,8.13
2022-08-24T12:54:07.528Z,8.63
2022-08-24T12:57:02.817Z,6.88
2022-08-24T12:59:31.851Z,7.78
2022-08-24T13:02:07.400Z,9.50
2022-08-24T13:04:40.309Z,9.60
2022-08-24T13:07:26.189Z,7.60
2022-08-24T13:09:52.711Z,7.90
2022-08-24T13:12:54.450Z,5.50
2022-08-24T13:15:46.283Z,5.22
2022-08-24T13:18:12.927Z,4.32
2022-08-24T13:20:58.095Z,3.88
2022-08-24T13:23:25.164Z,4.15
2022-08-24T13:25:54.150Z,4.53
2022-08-24T13:28:20.871Z,3.75
2022-08-24T13:31:02.960Z,4.18
2022-08-24T13:33:44.984Z,3.88
2022-08-24T13:36:42.670Z,3.53
2022-08-24T13:39:37.386Z,3.22
2022-08-24T13:42:19.527Z,3.63
2022-08-24T13:45:02.603Z,3.90
2022-08-24T13:47:29.215Z,4.03
2022-08-24T13:50:12.175Z,3.65
2022-08-24T13:53:04.877Z,3.80
2022-08-24T13:55:43.747Z,3.33
2022-08-24T13:58:39.288Z,3.88
2022-08-24T14:01:45.255Z,3.72
2022-08-24T14:04:27.229Z,3.88
2022-08-24T14:07:10.202Z,4.20
2022-08-24T14:09:53.811Z,4.60
2022-08-24T14:12:21.537Z,4.90
2022-08-24T14:15:06.715Z,3.97
2022-08-24T14:18:04.128Z,4.50
2022-08-24T14:20:30.837Z,3.55
2022-08-24T14:23:25.902Z,4.03
2022-08-24T14:26:27.739Z,4.25
2022-08-24T14:28:54.428Z,4.78
2022-08-24T14:31:28.502Z,4.13
2022-08-24T14:34:11.530Z,4.57
2022-08-24T14:36:57.275Z,4.07
2022-08-24T14:39:42.091Z,4.18
2022-08-24T14:42:17.374Z,4.47
2022-08-24T14:44:44.991Z,4.65
2022-08-24T14:47:42.187Z,4.22
2022-08-24T14:50:14.301Z,4.07
2022-08-24T14:52:56.235Z,4.60
2022-08-24T14:55:44.975Z,4.45
2022-08-24T14:58:29.068Z,4.40
2022-08-24T15:01:28.561Z,4.22
2022-08-24T15:04:37.117Z,5.03
2022-08-24T15:07:27.080Z,4.38
2022-08-24T15:09:55.763Z,4.45
2022-08-24T15:12:33.638Z,4.82
2022-08-24T15:15:34.059Z,4.53
2022-08-24T15:18:17.623Z,4.32
2022-08-24T15:21:03.069Z,4.47
2022-08-24T15:23:41.917Z,4.60
2022-08-24T15:26:18.276Z,4.00
2022-08-24T15:28:55.256Z,4.25
2022-08-24T15:31:28.293Z,4.25
2022-08-24T15:34:02.138Z,4.18
2022-08-24T15:36:32.964Z,4.22
2022-08-24T15:39:01.703Z,3.65
2022-08-24T15:41:31.336Z,3.85
2022-08-24T15:44:04.030Z,3.67
2022-08-24T15:46:43.049Z,3.72
2022-08-24T15:49:22.398Z,3.88
2022-08-24T15:51:53.382Z,4.13
2022-08-24T15:54:32.656Z,4.68
2022-08-24T15:57:04.588Z,4.10
2022-08-24T15:59:44.476Z,4.65
2022-08-24T16:02:26.538Z,4.75
2022-08-24T16:05:23.210Z,4.07
2022-08-24T16:08:05.168Z,4.25
2022-08-24T16:10:33.334Z,4.15
2022-08-24T16:13:25.640Z,3.85
2022-08-24T16:16:05.158Z,4.57
2022-08-24T16:18:53.578Z,5.47
2022-08-24T16:21:24.953Z,4.82
2022-08-24T16:24:02.107Z,4.07
2022-08-24T16:26:51.302Z,4.43
2022-08-24T16:29:45.994Z,4.80
2022-08-24T16:32:22.283Z,5.43
2022-08-24T16:35:18.250Z,4.57
2022-08-24T16:37:44.883Z,4.60
2022-08-24T16:40:12.589Z,4.45
2022-08-24T16:42:40.406Z,4.80
2022-08-24T16:45:10.145Z,4.30
2022-08-24T16:47:36.795Z,4.85
2022-08-24T16:50:05.393Z,4.65
2022-08-24T16:52:32.061Z,4.72
2022-08-24T16:55:00.534Z,4.45
2022-08-24T16:57:31.036Z,4.63
2022-08-24T16:59:58.140Z,4.28
2022-08-24T17:02:26.009Z,4.70
2022-08-24T17:04:54.608Z,4.15
2022-08-24T17:07:26.194Z,5.10
2022-08-24T17:09:54.254Z,4.28
2022-08-24T17:12:21.067Z,4.50
2022-08-24T17:14:48.002Z,4.55
2022-08-24T17:17:21.413Z,4.80
2022-08-24T17:19:51.117Z,4.93
2022-08-24T17:22:17.992Z,4.80
2022-08-24T17:24:45.819Z,5.13
2022-08-24T17:27:14.213Z,7.90
2022-08-24T17:29:43.528Z,7.93
2022-08-24T17:32:10.660Z,6.13
2022-08-24T17:34:37.607Z,6.20
2022-08-24T17:37:04.895Z,7.45
2022-08-24T17:39:31.650Z,11.60
2022-08-24T17:41:59.079Z,7.35
2022-08-24T17:44:29.484Z,6.10
2022-08-24T17:46:59.509Z,6.78
2022-08-24T17:49:28.007Z,10.93
2022-08-24T17:51:55.246Z,8.52
2022-08-24T17:54:22.539Z,7.43
2022-08-24T17:56:50.935Z,5.80
2022-08-24T17:59:31.527Z,5.80
2022-08-24T18:02:01.762Z,5.78
2022-08-24T18:04:31.366Z,5.70
2022-08-24T18:07:01.147Z,5.28
2022-08-24T18:09:37.115Z,5.55
2022-08-24T18:12:08.260Z,5.45
2022-08-24T18:14:36.029Z,5.40
2022-08-24T18:17:06.688Z,5.05
2022-08-24T18:19:34.090Z,5.32
2022-08-24T18:22:01.887Z,5.28
2022-08-24T18:24:32.466Z,6.30
2022-08-24T18:27:03.129Z,6.13
2022-08-24T18:29:39.264Z,5.75
2022-08-24T18:32:07.211Z,5.43
2022-08-24T18:34:34.659Z,5.65
2022-08-24T18:37:01.580Z,5.15
2022-08-24T18:39:28.632Z,5.22
2022-08-24T18:41:57.536Z,5.45
2022-08-24T18:44:27.231Z,5.05
2022-08-24T18:46:57.780Z,5.35
2022-08-24T18:49:24.406Z,5.47
2022-08-24T18:51:51.070Z,5.75
2022-08-24T18:54:20.605Z,5.43
2022-08-24T18:56:47.882Z,5.63
2022-08-24T18:59:16.699Z,5.95
2022-08-24T19:02:00.028Z,6.13
2022-08-24T19:04:32.907Z,5.47
2022-08-24T19:07:03.593Z,5.55
2022-08-24T19:09:34.187Z,6.57
2022-08-24T19:12:02.580Z,5.95
2022-08-24T19:14:29.270Z,6.43
2022-08-24T19:16:55.818Z,5.90
2022-08-24T19:19:22.579Z,5.38
2022-08-24T19:21:49.492Z,6.38
2022-08-24T19:24:19.285Z,6.40
2022-08-24T19:26:45.918Z,5.95
2022-08-24T19:29:12.590Z,6.93
2022-08-24T19:31:39.329Z,5.93
2022-08-24T19:34:06.715Z,6.35
2022-08-24T19:36:33.465Z,5.97
2022-08-24T19:39:00.223Z,7.07
2022-08-24T19:41:36.598Z,6.05
2022-08-24T19:44:27.590Z,6.63
2022-08-24T19:46:55.687Z,6.68
2022-08-24T19:49:22.919Z,7.30
2022-08-24T19:51:50.922Z,6.38
2022-08-24T19:54:17.698Z,6.38
2022-08-24T19:56:45.413Z,5.85
2022-08-24T19:59:24.682Z,6.35
2022-08-24T20:01:51.415Z,6.85
2022-08-24T20:04:18.101Z,7.07
2022-08-24T20:06:45.765Z,7.57
2022-08-24T20:09:12.426Z,7.57
2022-08-24T20:11:39.556Z,8.07
2022-08-24T20:14:07.158Z,8.45
2022-08-24T20:16:37.871Z,8.48
2022-08-24T20:19:05.582Z,7.70
2022-08-24T20:21:32.470Z,7.45
2022-08-24T20:24:00.768Z,6.68
2022-08-24T20:26:32.059Z,7.18
2022-08-24T20:28:59.098Z,7.47
2022-08-24T20:31:28.615Z,7.18
2022-08-24T20:33:57.154Z,7.43
2022-08-24T20:36:27.241Z,8.45
2022-08-24T20:38:56.595Z,7.50
2022-08-24T20:41:23.700Z,7.40
2022-08-24T20:43:50.346Z,7.05
2022-08-24T20:46:17.113Z,7.15
2022-08-24T20:48:44.979Z,7.47
2022-08-24T20:51:12.282Z,6.93
2022-08-24T20:53:38.911Z,6.40
2022-08-24T20:56:10.251Z,6.97
2022-08-24T20:58:39.125Z,6.90
2022-08-24T21:01:07.481Z,6.40
2022-08-24T21:03:34.362Z,6.13
2022-08-24T21:06:01.041Z,6.90
2022-08-24T21:08:27.672Z,6.82
2022-08-24T21:10:55.047Z,7.10
2022-08-24T21:13:21.901Z,6.75
2022-08-24T21:15:48.971Z,6.80
2022-08-24T21:18:15.767Z,6.70
2022-08-24T21:20:49.251Z,7.57
2022-08-24T21:23:30.094Z,6.95
2022-08-24T21:25:57.278Z,7.10
2022-08-24T21:28:24.033Z,7.20
2022-08-24T21:30:50.635Z,8.05
2022-08-24T21:33:32.496Z,7.40
2022-08-24T21:35:59.486Z,7.07
2022-08-24T21:38:26.975Z,7.75
2022-08-24T21:40:54.371Z,7.82
2022-08-24T21:43:21.744Z,7.95
2022-08-24T21:45:50.169Z,7.60
2022-08-24T21:48:18.680Z,7.78
2022-08-24T21:50:45.778Z,8.15
2022-08-24T21:53:12.367Z,8.30
2022-08-24T21:55:41.390Z,8.32
2022-08-24T21:58:10.034Z,8.13
2022-08-24T22:00:36.943Z,8.18
2022-08-24T22:03:05.054Z,7.30
2022-08-24T22:05:32.224Z,6.85
2022-08-24T22:07:58.934Z,7.32
2022-08-24T22:10:26.422Z,7.40
2022-08-24T22:12:53.728Z,6.80
2022-08-24T22:15:23.416Z,6.70
2022-08-24T22:17:52.611Z,7.03
2022-08-24T22:20:23.004Z,6.18
2022-08-24T22:22:50.455Z,7.28
2022-08-24T22:25:17.125Z,8.38
2022-08-24T22:27:45.831Z,7.47
2022-08-24T22:30:15.066Z,7.30
2022-08-24T22:32:41.604Z,6.88
2022-08-24T22:35:08.656Z,7.47
2022-08-24T22:37:35.739Z,7.85
2022-08-24T22:40:03.905Z,7.05
2022-08-24T22:42:30.785Z,6.45
2022-08-24T22:44:58.651Z,6.88
2022-08-24T22:47:27.013Z,7.72
2022-08-24T22:49:55.020Z,7.63
2022-08-24T22:52:21.633Z,7.65
2022-08-24T22:54:48.532Z,6.43
2022-08-24T22:57:17.674Z,6.30
2022-08-24T22:59:46.590Z,6.93
2022-08-24T23:02:16.632Z,7.20
2022-08-24T23:04:49.921Z,7.07
2022-08-24T23:07:20.580Z,6.00
2022-08-24T23:09:47.527Z,6.63
2022-08-24T23:12:17.978Z,7.75
2022-08-24T23:14:44.862Z,7.43
2022-08-24T23:17:12.125Z,7.47
2022-08-24T23:19:54.107Z,7.18
2022-08-24T23:22:21.284Z,6.45
2022-08-24T23:24:48.784Z,6.90
2022-08-24T23:27:17.328Z,6.75
2022-08-24T23:29:44.663Z,7.32
2022-08-24T23:32:12.036Z,7.38
2022-08-24T23:34:38.859Z,7.80
2022-08-24T23:37:05.919Z,7.03
2022-08-24T23:39:32.608Z,7.57
2022-08-24T23:41:59.470Z,8.07
2022-08-24T23:44:28.714Z,7.57
2022-08-24T23:46:58.044Z,7.20
2022-08-24T23:49:25.766Z,7.03
2022-08-24T23:51:52.937Z,7.65
2022-08-24T23:54:20.698Z,6.60
2022-08-24T23:56:48.739Z,6.38
2022-08-24T23:59:19.414Z,7.57
